sensor_id;sensor_type;location;lat;lon;timestamp;pressure;altitude;pressure_sealevel;temperature;humidity
50684;BME280;36654;45.042;38.994;2023-05-20T00:00:35;100782.16;;;18.81;43.63
50684;BME280;36654;45.042;38.994;2023-05-20T00:03:01;100830.66;;;19.15;44.13
50684;BME280;36654;45.042;38.994;2023-05-20T00:05:27;100828.94;;;19.11;44.32
50684;BME280;36654;45.042;38.994;2023-05-20T00:07:52;100836.97;;;19.13;44.23
50684;BME280;36654;45.042;38.994;2023-05-20T00:10:18;100853.09;;;19.13;44.76
50684;BME280;36654;45.042;38.994;2023-05-20T00:12:43;100844.22;;;19.09;44.69
50684;BME280;36654;45.042;38.994;2023-05-20T00:15:09;100840.69;;;19.07;45.28
50684;BME280;36654;45.042;38.994;2023-05-20T00:17:36;100823.03;;;18.95;45.22
50684;BME280;36654;45.042;38.994;2023-05-20T00:20:02;100846.97;;;19.06;45.65
50684;BME280;36654;45.042;38.994;2023-05-20T00:22:29;100854.13;;;19.07;45.81
50684;BME280;36654;45.042;38.994;2023-05-20T00:24:55;100817.50;;;19.03;45.73
50684;BME280;36654;45.042;38.994;2023-05-20T00:27:21;100829.09;;;19.05;45.94
50684;BME280;36654;45.042;38.994;2023-05-20T00:29:46;100815.75;;;19.01;46.53
50684;BME280;36654;45.042;38.994;2023-05-20T00:32:12;100835.50;;;19.00;46.51
50684;BME280;36654;45.042;38.994;2023-05-20T00:34:38;100836.50;;;18.94;46.77
50684;BME280;36654;45.042;38.994;2023-05-20T00:37:04;100843.56;;;18.98;47.13
50684;BME280;36654;45.042;38.994;2023-05-20T00:39:30;100822.28;;;18.89;47.34
50684;BME280;36654;45.042;38.994;2023-05-20T00:41:56;100817.78;;;18.89;47.42
50684;BME280;36654;45.042;38.994;2023-05-20T00:44:25;100830.25;;;18.93;47.93
50684;BME280;36654;45.042;38.994;2023-05-20T00:46:51;100809.91;;;18.82;47.97
50684;BME280;36654;45.042;38.994;2023-05-20T00:49:17;100787.91;;;18.63;48.23
50684;BME280;36654;45.042;38.994;2023-05-20T00:51:43;100841.06;;;18.90;48.06
50684;BME280;36654;45.042;38.994;2023-05-20T00:54:09;100858.06;;;18.91;48.43
50684;BME280;36654;45.042;38.994;2023-05-20T00:56:35;100847.31;;;18.91;48.42
50684;BME280;36654;45.042;38.994;2023-05-20T00:59:01;100830.38;;;18.87;48.56
50684;BME280;36654;45.042;38.994;2023-05-20T01:01:27;100829.56;;;18.84;48.68
50684;BME280;36654;45.042;38.994;2023-05-20T01:03:53;100841.31;;;18.80;49.07
50684;BME280;36654;45.042;38.994;2023-05-20T01:06:18;100839.34;;;18.86;48.98
50684;BME280;36654;45.042;38.994;2023-05-20T01:08:44;100861.59;;;18.93;49.16
50684;BME280;36654;45.042;38.994;2023-05-20T01:11:15;100847.31;;;18.91;49.29
50684;BME280;36654;45.042;38.994;2023-05-20T01:13:45;100849.06;;;18.92;49.15
50684;BME280;36654;45.042;38.994;2023-05-20T01:16:14;100859.78;;;18.95;49.12
50684;BME280;36654;45.042;38.994;2023-05-20T01:18:42;100838.47;;;18.86;49.46
50684;BME280;36654;45.042;38.994;2023-05-20T01:21:10;100855.28;;;18.94;49.45
50684;BME280;36654;45.042;38.994;2023-05-20T01:23:39;100851.75;;;18.92;49.30
50684;BME280;36654;45.042;38.994;2023-05-20T01:26:05;100868.72;;;18.94;49.46
50684;BME280;36654;45.042;38.994;2023-05-20T01:28:32;100857.13;;;18.92;49.77
50684;BME280;36654;45.042;38.994;2023-05-20T01:30:59;100849.03;;;18.95;49.90
50684;BME280;36654;45.042;38.994;2023-05-20T01:33:27;100870.56;;;18.92;49.83
50684;BME280;36654;45.042;38.994;2023-05-20T01:35:54;100855.28;;;18.95;49.82
50684;BME280;36654;45.042;38.994;2023-05-20T01:38:20;100852.59;;;18.94;49.71
50684;BME280;36654;45.042;38.994;2023-05-20T01:40:47;100858.91;;;18.93;49.81
50684;BME280;36654;45.042;38.994;2023-05-20T01:43:15;100890.28;;;18.91;49.86
50684;BME280;36654;45.042;38.994;2023-05-20T01:45:42;100857.97;;;18.94;50.02
50684;BME280;36654;45.042;38.994;2023-05-20T01:48:09;100869.56;;;18.98;49.66
50684;BME280;36654;45.042;38.994;2023-05-20T01:50:36;100864.13;;;18.99;50.08
50684;BME280;36654;45.042;38.994;2023-05-20T01:53:02;100854.41;;;18.95;49.93
50684;BME280;36654;45.042;38.994;2023-05-20T01:55:27;100867.69;;;19.01;50.16
50684;BME280;36654;45.042;38.994;2023-05-20T01:57:53;100840.38;;;18.81;49.95
50684;BME280;36654;45.042;38.994;2023-05-20T02:00:19;100858.75;;;19.01;50.08
50684;BME280;36654;45.042;38.994;2023-05-20T02:02:45;100839.50;;;18.80;49.99
50684;BME280;36654;45.042;38.994;2023-05-20T02:05:10;100815.28;;;18.82;49.90
50684;BME280;36654;45.042;38.994;2023-05-20T02:07:36;100895.22;;;19.12;49.85
50684;BME280;36654;45.042;38.994;2023-05-20T02:10:02;100903.22;;;19.15;49.65
50684;BME280;36654;45.042;38.994;2023-05-20T02:12:28;100893.31;;;19.17;50.10
50684;BME280;36654;45.042;38.994;2023-05-20T02:14:54;100881.56;;;19.22;49.66
50684;BME280;36654;45.042;38.994;2023-05-20T02:17:20;100887.31;;;19.45;49.35
50684;BME280;36654;45.042;38.994;2023-05-20T02:19:45;100882.31;;;19.69;48.48
50684;BME280;36654;45.042;38.994;2023-05-20T02:22:12;100865.00;;;19.79;47.69
50684;BME280;36654;45.042;38.994;2023-05-20T02:24:37;100905.50;;;20.10;47.35
50684;BME280;36654;45.042;38.994;2023-05-20T02:27:03;100896.06;;;20.28;47.20
50684;BME280;36654;45.042;38.994;2023-05-20T02:29:30;100821.03;;;20.16;46.44
50684;BME280;36654;45.042;38.994;2023-05-20T02:31:56;100884.19;;;20.70;45.82
50684;BME280;36654;45.042;38.994;2023-05-20T02:34:22;100892.72;;;20.85;45.41
50684;BME280;36654;45.042;38.994;2023-05-20T02:36:48;100892.88;;;21.10;45.04
50684;BME280;36654;45.042;38.994;2023-05-20T02:39:13;100902.22;;;21.28;44.66
50684;BME280;36654;45.042;38.994;2023-05-20T02:41:39;100908.13;;;21.41;44.22
50684;BME280;36654;45.042;38.994;2023-05-20T02:44:08;100896.00;;;21.56;44.09
50684;BME280;36654;45.042;38.994;2023-05-20T02:46:33;100872.38;;;21.64;43.48
50684;BME280;36654;45.042;38.994;2023-05-20T02:48:59;100861.03;;;21.53;43.42
50684;BME280;36654;45.042;38.994;2023-05-20T02:51:25;100885.97;;;21.88;43.32
50684;BME280;36654;45.042;38.994;2023-05-20T02:53:50;100882.31;;;21.89;42.89
50684;BME280;36654;45.042;38.994;2023-05-20T02:56:16;100872.91;;;22.02;42.77
50684;BME280;36654;45.042;38.994;2023-05-20T02:58:45;100903.47;;;22.03;42.86
50684;BME280;36654;45.042;38.994;2023-05-20T03:01:11;100884.34;;;22.09;42.80
50684;BME280;36654;45.042;38.994;2023-05-20T03:03:37;100850.13;;;21.84;42.67
50684;BME280;36654;45.042;38.994;2023-05-20T03:06:03;100891.31;;;22.16;42.58
50684;BME280;36654;45.042;38.994;2023-05-20T03:08:28;100870.50;;;21.93;42.63
50684;BME280;36654;45.042;38.994;2023-05-20T03:10:54;100901.25;;;22.15;42.77
50684;BME280;36654;45.042;38.994;2023-05-20T03:13:19;100899.56;;;22.11;42.75
50684;BME280;36654;45.042;38.994;2023-05-20T03:15:45;100891.22;;;22.19;42.81
50684;BME280;36654;45.042;38.994;2023-05-20T03:18:11;100882.56;;;22.09;42.58
50684;BME280;36654;45.042;38.994;2023-05-20T03:20:38;100909.97;;;22.24;42.70
50684;BME280;36654;45.042;38.994;2023-05-20T03:23:04;100890.28;;;22.22;42.74
50684;BME280;36654;45.042;38.994;2023-05-20T03:25:30;100902.41;;;22.35;42.67
50684;BME280;36654;45.042;38.994;2023-05-20T03:27:56;100912.19;;;22.39;42.24
50684;BME280;36654;45.042;38.994;2023-05-20T03:30:26;100883.50;;;22.35;42.10
50684;BME280;36654;45.042;38.994;2023-05-20T03:32:54;100900.53;;;22.37;42.58
50684;BME280;36654;45.042;38.994;2023-05-20T03:35:22;100916.66;;;22.38;42.77
50684;BME280;36654;45.042;38.994;2023-05-20T03:37:47;100909.84;;;22.53;42.56
50684;BME280;36654;45.042;38.994;2023-05-20T03:40:13;100927.41;;;22.67;42.03
50684;BME280;36654;45.042;38.994;2023-05-20T03:42:39;100900.41;;;22.65;41.79
50684;BME280;36654;45.042;38.994;2023-05-20T03:45:05;100915.63;;;22.68;42.03
50684;BME280;36654;45.042;38.994;2023-05-20T03:47:31;100914.47;;;22.75;41.89
50684;BME280;36654;45.042;38.994;2023-05-20T03:49:57;100876.38;;;22.57;41.78
50684;BME280;36654;45.042;38.994;2023-05-20T03:52:22;100909.47;;;22.89;41.78
50684;BME280;36654;45.042;38.994;2023-05-20T03:54:48;100903.63;;;23.01;41.46
50684;BME280;36654;45.042;38.994;2023-05-20T03:57:14;100913.53;;;23.01;41.45
50684;BME280;36654;45.042;38.994;2023-05-20T03:59:39;100919.19;;;22.93;41.61
50684;BME280;36654;45.042;38.994;2023-05-20T04:02:06;100933.59;;;22.94;41.83
50684;BME280;36654;45.042;38.994;2023-05-20T04:04:32;100927.13;;;22.99;41.31
50684;BME280;36654;45.042;38.994;2023-05-20T04:06:58;100941.53;;;23.00;41.53
50684;BME280;36654;45.042;38.994;2023-05-20T04:09:27;100943.00;;;23.09;41.47
50684;BME280;36654;45.042;38.994;2023-05-20T04:11:53;100919.47;;;23.11;41.00
50684;BME280;36654;45.042;38.994;2023-05-20T04:14:19;100920.81;;;23.24;41.44
50684;BME280;36654;45.042;38.994;2023-05-20T04:16:44;100930.75;;;23.45;40.66
50684;BME280;36654;45.042;38.994;2023-05-20T04:19:11;100937.66;;;23.54;40.32
50684;BME280;36654;45.042;38.994;2023-05-20T04:21:37;100906.44;;;23.22;40.14
50684;BME280;36654;45.042;38.994;2023-05-20T04:24:03;100921.25;;;23.35;40.09
50684;BME280;36654;45.042;38.994;2023-05-20T04:26:29;100925.91;;;23.54;40.29
50684;BME280;36654;45.042;38.994;2023-05-20T04:28:54;100949.91;;;23.63;39.68
50684;BME280;36654;45.042;38.994;2023-05-20T04:31:23;100940.22;;;23.57;39.37
50684;BME280;36654;45.042;38.994;2023-05-20T04:33:54;100953.91;;;23.76;39.31
50684;BME280;36654;45.042;38.994;2023-05-20T04:36:19;100936.75;;;23.77;39.40
50684;BME280;36654;45.042;38.994;2023-05-20T04:38:45;100949.09;;;23.84;39.33
50684;BME280;36654;45.042;38.994;2023-05-20T04:41:12;100964.66;;;24.01;39.12
50684;BME280;36654;45.042;38.994;2023-05-20T04:43:38;100943.38;;;24.14;38.27
50684;BME280;36654;45.042;38.994;2023-05-20T04:46:04;100943.66;;;24.28;38.05
50684;BME280;36654;45.042;38.994;2023-05-20T04:48:31;100957.09;;;24.31;38.04
50684;BME280;36654;45.042;38.994;2023-05-20T04:50:57;100951.38;;;24.38;37.75
50684;BME280;36654;45.042;38.994;2023-05-20T04:53:22;100950.16;;;24.46;37.42
50684;BME280;36654;45.042;38.994;2023-05-20T04:55:48;100948.91;;;24.53;37.10
50684;BME280;36654;45.042;38.994;2023-05-20T04:58:18;100956.47;;;24.67;36.80
50684;BME280;36654;45.042;38.994;2023-05-20T05:00:44;100981.38;;;24.96;36.39
50684;BME280;36654;45.042;38.994;2023-05-20T05:03:11;100952.63;;;25.12;35.88
50684;BME280;36654;45.042;38.994;2023-05-20T05:05:40;100973.66;;;25.28;35.21
50684;BME280;36654;45.042;38.994;2023-05-20T05:08:07;100981.28;;;25.38;35.03
50684;BME280;36654;45.042;38.994;2023-05-20T05:10:33;100944.34;;;25.15;35.44
50684;BME280;36654;45.042;38.994;2023-05-20T05:12:59;100960.03;;;25.48;35.00
50684;BME280;36654;45.042;38.994;2023-05-20T05:15:25;100989.97;;;25.66;34.20
50684;BME280;36654;45.042;38.994;2023-05-20T05:17:51;100999.72;;;25.70;34.29
50684;BME280;36654;45.042;38.994;2023-05-20T05:20:16;100985.19;;;25.52;34.46
50684;BME280;36654;45.042;38.994;2023-05-20T05:22:43;100956.13;;;25.35;34.28
50684;BME280;36654;45.042;38.994;2023-05-20T05:25:09;100948.16;;;25.32;33.93
50684;BME280;36654;45.042;38.994;2023-05-20T05:27:35;101017.97;;;25.47;33.54
50684;BME280;36654;45.042;38.994;2023-05-20T05:30:02;100980.84;;;25.48;34.02
50684;BME280;36654;45.042;38.994;2023-05-20T05:32:28;100971.44;;;25.36;33.41
50684;BME280;36654;45.042;38.994;2023-05-20T05:34:54;101003.53;;;25.47;33.67
50684;BME280;36654;45.042;38.994;2023-05-20T05:37:20;100946.69;;;25.44;33.68
50684;BME280;36654;45.042;38.994;2023-05-20T05:39:46;101039.72;;;25.66;32.80
50684;BME280;36654;45.042;38.994;2023-05-20T05:42:11;100959.75;;;25.54;33.18
50684;BME280;36654;45.042;38.994;2023-05-20T05:44:37;100971.72;;;25.69;33.03
50684;BME280;36654;45.042;38.994;2023-05-20T05:47:03;101002.88;;;25.60;32.25
50684;BME280;36654;45.042;38.994;2023-05-20T05:49:29;100974.25;;;25.53;32.52
50684;BME280;36654;45.042;38.994;2023-05-20T05:51:55;100974.13;;;25.56;32.60
50684;BME280;36654;45.042;38.994;2023-05-20T05:54:21;100977.78;;;25.55;32.05
50684;BME280;36654;45.042;38.994;2023-05-20T05:56:46;100912.78;;;25.52;31.78
50684;BME280;36654;45.042;38.994;2023-05-20T05:59:12;100987.78;;;25.74;31.38
50684;BME280;36654;45.042;38.994;2023-05-20T06:01:38;100951.59;;;25.54;31.89
50684;BME280;36654;45.042;38.994;2023-05-20T06:04:03;100968.03;;;25.51;31.76
50684;BME280;36654;45.042;38.994;2023-05-20T06:06:30;100985.00;;;25.56;32.19
50684;BME280;36654;45.042;38.994;2023-05-20T06:08:56;100975.78;;;25.40;32.26
50684;BME280;36654;45.042;38.994;2023-05-20T06:11:23;100964.69;;;25.26;32.70
50684;BME280;36654;45.042;38.994;2023-05-20T06:13:49;100972.03;;;25.03;32.53
50684;BME280;36654;45.042;38.994;2023-05-20T06:16:15;100985.47;;;24.86;32.84
50684;BME280;36654;45.042;38.994;2023-05-20T06:18:41;100972.56;;;24.91;31.53
50684;BME280;36654;45.042;38.994;2023-05-20T06:21:07;101014.53;;;24.82;31.95
50684;BME280;36654;45.042;38.994;2023-05-20T06:23:32;100961.75;;;24.70;31.75
50684;BME280;36654;45.042;38.994;2023-05-20T06:25:59;100949.28;;;24.66;32.22
50684;BME280;36654;45.042;38.994;2023-05-20T06:28:25;100975.97;;;24.55;32.07
50684;BME280;36654;45.042;38.994;2023-05-20T06:30:53;100955.34;;;24.51;32.19
50684;BME280;36654;45.042;38.994;2023-05-20T06:33:19;100971.63;;;24.51;32.50
50684;BME280;36654;45.042;38.994;2023-05-20T06:35:46;100952.91;;;24.45;32.23
50684;BME280;36654;45.042;38.994;2023-05-20T06:38:12;100969.13;;;24.46;32.68
50684;BME280;36654;45.042;38.994;2023-05-20T06:40:37;100953.31;;;24.56;32.82
50684;BME280;36654;45.042;38.994;2023-05-20T06:43:03;100953.22;;;24.59;32.44
50684;BME280;36654;45.042;38.994;2023-05-20T06:45:28;100975.53;;;24.44;31.74
50684;BME280;36654;45.042;38.994;2023-05-20T06:47:54;100972.38;;;24.32;31.54
50684;BME280;36654;45.042;38.994;2023-05-20T06:50:20;100951.91;;;24.25;31.75
50684;BME280;36654;45.042;38.994;2023-05-20T06:52:45;100948.69;;;24.38;31.79
50684;BME280;36654;45.042;38.994;2023-05-20T06:55:11;100893.66;;;24.15;32.02
50684;BME280;36654;45.042;38.994;2023-05-20T06:57:37;100973.63;;;24.46;31.48
50684;BME280;36654;45.042;38.994;2023-05-20T07:00:03;100936.53;;;24.48;31.46
50684;BME280;36654;45.042;38.994;2023-05-20T07:02:32;101000.50;;;24.52;31.69
50684;BME280;36654;45.042;38.994;2023-05-20T07:04:58;100946.09;;;24.35;31.59
50684;BME280;36654;45.042;38.994;2023-05-20T07:07:23;100940.34;;;24.42;31.54
50684;BME280;36654;45.042;38.994;2023-05-20T07:09:49;100937.88;;;24.58;32.06
50684;BME280;36654;45.042;38.994;2023-05-20T07:12:15;100942.09;;;24.65;30.71
50684;BME280;36654;45.042;38.994;2023-05-20T07:14:41;100941.84;;;24.71;30.79
50684;BME280;36654;45.042;38.994;2023-05-20T07:17:07;100939.66;;;24.80;29.97
50684;BME280;36654;45.042;38.994;2023-05-20T07:19:32;100975.97;;;24.75;30.05
50684;BME280;36654;45.042;38.994;2023-05-20T07:21:59;100954.56;;;24.69;30.59
50684;BME280;36654;45.042;38.994;2023-05-20T07:24:25;100960.09;;;24.46;30.47
50684;BME280;36654;45.042;38.994;2023-05-20T07:26:50;100943.88;;;24.44;30.38
50684;BME280;36654;45.042;38.994;2023-05-20T07:29:16;100909.13;;;24.33;30.93
50684;BME280;36654;45.042;38.994;2023-05-20T07:31:42;100942.63;;;24.53;30.65
50684;BME280;36654;45.042;38.994;2023-05-20T07:34:07;100944.50;;;24.51;30.71
50684;BME280;36654;45.042;38.994;2023-05-20T07:36:33;100894.53;;;24.16;30.20
50684;BME280;36654;45.042;38.994;2023-05-20T07:38:59;100935.78;;;24.22;30.96
50684;BME280;36654;45.042;38.994;2023-05-20T07:41:25;100955.97;;;24.36;31.22
50684;BME280;36654;45.042;38.994;2023-05-20T07:43:51;100918.03;;;24.15;31.31
50684;BME280;36654;45.042;38.994;2023-05-20T07:46:16;100965.81;;;24.60;31.18
50684;BME280;36654;45.042;38.994;2023-05-20T07:48:42;100996.06;;;24.71;29.57
50684;BME280;36654;45.042;38.994;2023-05-20T07:51:09;100948.03;;;24.73;29.74
50684;BME280;36654;45.042;38.994;2023-05-20T07:53:36;100971.16;;;24.82;29.95
50684;BME280;36654;45.042;38.994;2023-05-20T07:56:02;100973.13;;;24.99;29.89
50684;BME280;36654;45.042;38.994;2023-05-20T07:58:27;100952.47;;;24.96;29.68
50684;BME280;36654;45.042;38.994;2023-05-20T08:00:53;100981.81;;;24.87;30.01
50684;BME280;36654;45.042;38.994;2023-05-20T08:03:19;100958.22;;;24.89;29.26
50684;BME280;36654;45.042;38.994;2023-05-20T08:05:46;100978.28;;;24.85;29.23
50684;BME280;36654;45.042;38.994;2023-05-20T08:08:12;100933.34;;;24.79;29.50
50684;BME280;36654;45.042;38.994;2023-05-20T08:10:38;100972.56;;;25.11;29.41
50684;BME280;36654;45.042;38.994;2023-05-20T08:13:03;100982.59;;;25.09;29.26
50684;BME280;36654;45.042;38.994;2023-05-20T08:15:29;100976.06;;;25.13;29.71
50684;BME280;36654;45.042;38.994;2023-05-20T08:17:55;101010.41;;;25.14;30.15
50684;BME280;36654;45.042;38.994;2023-05-20T08:20:20;100972.56;;;25.11;30.06
50684;BME280;36654;45.042;38.994;2023-05-20T08:22:46;100959.22;;;25.07;30.34
50684;BME280;36654;45.042;38.994;2023-05-20T08:25:12;100961.72;;;25.11;30.66
50684;BME280;36654;45.042;38.994;2023-05-20T08:27:38;100977.75;;;25.17;30.35
50684;BME280;36654;45.042;38.994;2023-05-20T08:30:04;100943.56;;;24.93;30.24
50684;BME280;36654;45.042;38.994;2023-05-20T08:32:32;100983.78;;;25.04;29.90
50684;BME280;36654;45.042;38.994;2023-05-20T08:34:58;101003.66;;;24.84;29.55
50684;BME280;36654;45.042;38.994;2023-05-20T08:37:26;100997.25;;;24.85;29.42
50684;BME280;36654;45.042;38.994;2023-05-20T08:39:52;100971.91;;;24.86;30.04
50684;BME280;36654;45.042;38.994;2023-05-20T08:42:23;100969.53;;;24.78;30.26
50684;BME280;36654;45.042;38.994;2023-05-20T08:44:51;100986.13;;;24.91;30.32
50684;BME280;36654;45.042;38.994;2023-05-20T08:47:19;100957.81;;;24.78;30.44
50684;BME280;36654;45.042;38.994;2023-05-20T08:49:47;100949.47;;;24.82;30.21
50684;BME280;36654;45.042;38.994;2023-05-20T08:52:13;100939.44;;;24.84;30.05
50684;BME280;36654;45.042;38.994;2023-05-20T08:54:45;100961.13;;;25.05;30.25
50684;BME280;36654;45.042;38.994;2023-05-20T08:57:12;100961.47;;;25.17;30.29
50684;BME280;36654;45.042;38.994;2023-05-20T08:59:42;100981.22;;;25.21;30.44
50684;BME280;36654;45.042;38.994;2023-05-20T09:02:08;100960.81;;;25.11;30.13
50684;BME280;36654;45.042;38.994;2023-05-20T09:04:36;100945.06;;;25.00;29.63
50684;BME280;36654;45.042;38.994;2023-05-20T09:07:02;100916.34;;;24.75;29.68
50684;BME280;36654;45.042;38.994;2023-05-20T09:09:28;100952.50;;;24.95;29.89
50684;BME280;36654;45.042;38.994;2023-05-20T09:11:54;100966.47;;;25.27;29.94
50684;BME280;36654;45.042;38.994;2023-05-20T09:14:20;100954.53;;;25.10;29.58
50684;BME280;36654;45.042;38.994;2023-05-20T09:16:47;100956.34;;;25.30;29.39
50684;BME280;36654;45.042;38.994;2023-05-20T09:19:16;100976.75;;;25.39;29.96
50684;BME280;36654;45.042;38.994;2023-05-20T09:21:41;100966.78;;;25.39;29.80
50684;BME280;36654;45.042;38.994;2023-05-20T09:24:07;100931.34;;;25.03;29.80
50684;BME280;36654;45.042;38.994;2023-05-20T09:26:33;100967.00;;;25.14;29.72
50684;BME280;36654;45.042;38.994;2023-05-20T09:28:58;100988.72;;;25.14;29.80
50684;BME280;36654;45.042;38.994;2023-05-20T09:31:26;100942.28;;;25.22;30.06
50684;BME280;36654;45.042;38.994;2023-05-20T09:33:53;100959.44;;;25.42;30.04
50684;BME280;36654;45.042;38.994;2023-05-20T09:36:21;100935.03;;;25.42;29.98
50684;BME280;36654;45.042;38.994;2023-05-20T09:38:51;100940.25;;;25.46;30.24
50684;BME280;36654;45.042;38.994;2023-05-20T09:41:19;100954.31;;;25.54;30.42
50684;BME280;36654;45.042;38.994;2023-05-20T09:43:49;100940.31;;;25.64;30.19
50684;BME280;36654;45.042;38.994;2023-05-20T09:46:16;100971.78;;;25.68;29.71
50684;BME280;36654;45.042;38.994;2023-05-20T09:48:43;100936.19;;;25.74;29.97
50684;BME280;36654;45.042;38.994;2023-05-20T09:51:10;100928.78;;;25.96;29.91
50684;BME280;36654;45.042;38.994;2023-05-20T09:53:36;100921.13;;;26.04;28.95
50684;BME280;36654;45.042;38.994;2023-05-20T09:56:02;100963.38;;;26.10;28.71
50684;BME280;36654;45.042;38.994;2023-05-20T09:58:28;100957.25;;;26.07;28.84
50684;BME280;36654;45.042;38.994;2023-05-20T10:00:54;100910.06;;;25.71;29.04
50684;BME280;36654;45.042;38.994;2023-05-20T10:03:23;100950.94;;;25.87;29.01
50684;BME280;36654;45.042;38.994;2023-05-20T10:12:08;100940.97;;;25.50;28.66
50684;BME280;36654;45.042;38.994;2023-05-20T10:14:49;100962.38;;;25.37;29.46
50684;BME280;36654;45.042;38.994;2023-05-20T10:19:59;100945.53;;;25.49;28.68
50684;BME280;36654;45.042;38.994;2023-05-20T10:22:27;100971.63;;;25.52;28.84
50684;BME280;36654;45.042;38.994;2023-05-20T10:25:04;101000.47;;;25.54;28.78
50684;BME280;36654;45.042;38.994;2023-05-20T10:27:45;100949.81;;;25.53;28.76
50684;BME280;36654;45.042;38.994;2023-05-20T10:30:16;101009.53;;;25.53;29.51
50684;BME280;36654;45.042;38.994;2023-05-20T10:32:52;100909.28;;;25.31;29.08
50684;BME280;36654;45.042;38.994;2023-05-20T10:35:25;100939.28;;;25.47;29.20
50684;BME280;36654;45.042;38.994;2023-05-20T10:37:52;100897.03;;;25.23;29.25
50684;BME280;36654;45.042;38.994;2023-05-20T10:40:20;100920.59;;;25.41;29.23
50684;BME280;36654;45.042;38.994;2023-05-20T10:42:46;100948.16;;;25.32;29.26
50684;BME280;36654;45.042;38.994;2023-05-20T10:45:24;100913.81;;;25.31;29.40
50684;BME280;36654;45.042;38.994;2023-05-20T10:47:56;100967.97;;;25.34;29.64
50684;BME280;36654;45.042;38.994;2023-05-20T10:50:34;100934.84;;;25.26;29.56
50684;BME280;36654;45.042;38.994;2023-05-20T10:53:10;100925.84;;;25.25;29.88
50684;BME280;36654;45.042;38.994;2023-05-20T10:55:37;100933.91;;;25.27;30.01
50684;BME280;36654;45.042;38.994;2023-05-20T10:58:04;100926.00;;;25.22;29.51
50684;BME280;36654;45.042;38.994;2023-05-20T11:00:33;100904.44;;;25.19;30.04
50684;BME280;36654;45.042;38.994;2023-05-20T11:02:59;100848.66;;;24.74;29.74
50684;BME280;36654;45.042;38.994;2023-05-20T11:05:25;100935.53;;;25.10;29.97
50684;BME280;36654;45.042;38.994;2023-05-20T11:08:02;100967.00;;;25.14;30.19
50684;BME280;36654;45.042;38.994;2023-05-20T11:10:28;100930.25;;;25.07;29.88
50684;BME280;36654;45.042;38.994;2023-05-20T11:12:55;100907.91;;;25.02;29.93
50684;BME280;36654;45.042;38.994;2023-05-20T11:15:21;100946.38;;;25.10;30.11
50684;BME280;36654;45.042;38.994;2023-05-20T11:17:56;100930.19;;;25.09;29.91
50684;BME280;36654;45.042;38.994;2023-05-20T11:20:23;100927.06;;;25.18;30.30
50684;BME280;36654;45.042;38.994;2023-05-20T11:22:52;100904.78;;;24.91;30.50
50684;BME280;36654;45.042;38.994;2023-05-20T11:25:19;100935.63;;;25.09;30.47
50684;BME280;36654;45.042;38.994;2023-05-20T11:27:45;100923.50;;;25.17;30.62
50684;BME280;36654;45.042;38.994;2023-05-20T11:30:12;100905.97;;;25.25;30.54
50684;BME280;36654;45.042;38.994;2023-05-20T11:32:55;100882.41;;;25.06;31.07
50684;BME280;36654;45.042;38.994;2023-05-20T11:35:21;100923.56;;;25.35;30.98
50684;BME280;36654;45.042;38.994;2023-05-20T11:38:01;100906.78;;;25.27;31.00
50684;BME280;36654;45.042;38.994;2023-05-20T11:40:28;100868.59;;;25.11;31.01
50684;BME280;36654;45.042;38.994;2023-05-20T11:42:56;100906.06;;;25.42;30.99
50684;BME280;36654;45.042;38.994;2023-05-20T11:45:22;100916.47;;;25.51;31.13
50684;BME280;36654;45.042;38.994;2023-05-20T11:48:01;100917.41;;;25.50;30.62
50684;BME280;36654;45.042;38.994;2023-05-20T11:50:32;100900.47;;;25.45;30.37
50684;BME280;36654;45.042;38.994;2023-05-20T11:52:59;100905.91;;;25.45;30.65
50684;BME280;36654;45.042;38.994;2023-05-20T11:55:25;100896.22;;;25.39;30.76
50684;BME280;36654;45.042;38.994;2023-05-20T11:57:51;100897.41;;;25.34;30.39
50684;BME280;36654;45.042;38.994;2023-05-20T12:00:17;100884.94;;;25.30;31.14
50684;BME280;36654;45.042;38.994;2023-05-20T12:02:43;100861.13;;;25.16;30.82
50684;BME280;36654;45.042;38.994;2023-05-20T12:05:09;100921.59;;;25.38;30.70
50684;BME280;36654;45.042;38.994;2023-05-20T12:07:35;100920.88;;;25.35;30.24
50684;BME280;36654;45.042;38.994;2023-05-20T12:10:05;100886.56;;;25.34;30.38
50684;BME280;36654;45.042;38.994;2023-05-20T12:12:31;100897.53;;;25.31;29.98
50684;BME280;36654;45.042;38.994;2023-05-20T12:14:56;100929.97;;;25.34;29.93
50684;BME280;36654;45.042;38.994;2023-05-20T12:17:22;100853.25;;;25.11;30.54
50684;BME280;36654;45.042;38.994;2023-05-20T12:19:48;100916.84;;;25.44;30.12
50684;BME280;36654;45.042;38.994;2023-05-20T12:22:13;100889.94;;;25.39;29.77
50684;BME280;36654;45.042;38.994;2023-05-20T12:24:39;100898.94;;;25.39;30.27
50684;BME280;36654;45.042;38.994;2023-05-20T12:27:05;100891.69;;;25.40;30.17
50684;BME280;36654;45.042;38.994;2023-05-20T12:29:32;100890.22;;;25.33;29.70
50684;BME280;36654;45.042;38.994;2023-05-20T12:31:58;100896.59;;;25.32;29.87
50684;BME280;36654;45.042;38.994;2023-05-20T12:34:24;100917.06;;;25.39;29.31
50684;BME280;36654;45.042;38.994;2023-05-20T12:36:49;100936.88;;;25.41;29.56
50684;BME280;36654;45.042;38.994;2023-05-20T12:39:15;100886.09;;;25.43;29.56
50684;BME280;36654;45.042;38.994;2023-05-20T12:41:43;100907.81;;;25.43;29.63
50684;BME280;36654;45.042;38.994;2023-05-20T12:44:09;100884.03;;;25.48;29.86
50684;BME280;36654;45.042;38.994;2023-05-20T12:46:35;100874.97;;;25.49;29.83